sensor_id;sensor_type;location;lat;lon;timestamp;P1;durP1;ratioP1;P2;durP2;ratioP2
23812;SDS011;12087;45.190;5.688;2022-07-29T00:00:05;2.13;;;1.80;;
23812;SDS011;12087;45.190;5.688;2022-07-29T00:05:30;5.15;;;2.03;;
23812;SDS011;12087;45.190;5.688;2022-07-29T00:10:52;4.43;;;1.83;;
23812;SDS011;12087;45.190;5.688;2022-07-29T00:16:15;6.15;;;2.17;;
23812;SDS011;12087;45.190;5.688;2022-07-29T00:21:38;3.42;;;1.90;;
23812;SDS011;12087;45.190;5.688;2022-07-29T00:27:00;15.48;;;2.58;;
23812;SDS011;12087;45.190;5.688;2022-07-29T00:32:23;3.50;;;2.50;;
23812;SDS011;12087;45.190;5.688;2022-07-29T00:37:46;6.00;;;2.20;;
23812;SDS011;12087;45.190;5.688;2022-07-29T00:43:08;5.63;;;2.28;;
23812;SDS011;12087;45.190;5.688;2022-07-29T00:48:33;2.95;;;2.03;;
23812;SDS011;12087;45.190;5.688;2022-07-29T00:53:56;3.95;;;2.22;;
23812;SDS011;12087;45.190;5.688;2022-07-29T00:59:19;3.70;;;1.60;;
23812;SDS011;12087;45.190;5.688;2022-07-29T01:04:41;4.28;;;1.63;;
23812;SDS011;12087;45.190;5.688;2022-07-29T01:10:06;7.43;;;2.03;;
23812;SDS011;12087;45.190;5.688;2022-07-29T01:15:30;3.00;;;2.15;;
23812;SDS011;12087;45.190;5.688;2022-07-29T01:26:51;3.45;;;1.80;;
23812;SDS011;12087;45.190;5.688;2022-07-29T01:32:22;4.20;;;1.63;;
23812;SDS011;12087;45.190;5.688;2022-07-29T01:37:48;2.83;;;1.63;;
23812;SDS011;12087;45.190;5.688;2022-07-29T01:43:16;4.00;;;1.98;;
23812;SDS011;12087;45.190;5.688;2022-07-29T01:48:43;4.32;;;1.92;;
23812;SDS011;12087;45.190;5.688;2022-07-29T01:59:34;4.45;;;2.00;;
23812;SDS011;12087;45.190;5.688;2022-07-29T02:05:00;3.85;;;2.00;;
23812;SDS011;12087;45.190;5.688;2022-07-29T02:10:30;3.13;;;2.00;;
23812;SDS011;12087;45.190;5.688;2022-07-29T02:15:54;5.63;;;2.45;;
23812;SDS011;12087;45.190;5.688;2022-07-29T02:21:21;5.53;;;2.13;;
23812;SDS011;12087;45.190;5.688;2022-07-29T02:26:45;3.58;;;2.13;;
23812;SDS011;12087;45.190;5.688;2022-07-29T02:32:09;6.97;;;2.13;;
23812;SDS011;12087;45.190;5.688;2022-07-29T02:37:36;2.90;;;2.20;;
23812;SDS011;12087;45.190;5.688;2022-07-29T02:43:00;3.28;;;2.08;;
23812;SDS011;12087;45.190;5.688;2022-07-29T02:48:26;3.20;;;1.98;;
23812;SDS011;12087;45.190;5.688;2022-07-29T02:53:55;7.05;;;1.90;;
23812;SDS011;12087;45.190;5.688;2022-07-29T02:59:20;5.60;;;2.05;;
23812;SDS011;12087;45.190;5.688;2022-07-29T03:04:47;4.47;;;2.10;;
23812;SDS011;12087;45.190;5.688;2022-07-29T03:10:11;3.33;;;2.08;;
23812;SDS011;12087;45.190;5.688;2022-07-29T03:15:35;3.95;;;1.60;;
23812;SDS011;12087;45.190;5.688;2022-07-29T03:20:58;2.88;;;2.00;;
23812;SDS011;12087;45.190;5.688;2022-07-29T03:26:22;2.90;;;1.98;;
23812;SDS011;12087;45.190;5.688;2022-07-29T03:31:44;4.00;;;1.92;;
23812;SDS011;12087;45.190;5.688;2022-07-29T03:37:06;3.75;;;1.80;;
23812;SDS011;12087;45.190;5.688;2022-07-29T03:42:30;6.75;;;1.77;;
23812;SDS011;12087;45.190;5.688;2022-07-29T03:47:56;5.45;;;2.40;;
23812;SDS011;12087;45.190;5.688;2022-07-29T03:53:22;9.95;;;2.30;;
23812;SDS011;12087;45.190;5.688;2022-07-29T03:58:46;4.80;;;2.70;;
23812;SDS011;12087;45.190;5.688;2022-07-29T04:04:09;6.15;;;2.30;;
23812;SDS011;12087;45.190;5.688;2022-07-29T04:09:31;4.13;;;2.20;;
23812;SDS011;12087;45.190;5.688;2022-07-29T04:14:55;4.07;;;2.00;;
23812;SDS011;12087;45.190;5.688;2022-07-29T04:20:17;6.30;;;2.15;;
23812;SDS011;12087;45.190;5.688;2022-07-29T04:25:40;7.05;;;2.15;;
23812;SDS011;12087;45.190;5.688;2022-07-29T04:31:04;8.48;;;2.10;;
23812;SDS011;12087;45.190;5.688;2022-07-29T04:36:26;4.55;;;2.08;;
23812;SDS011;12087;45.190;5.688;2022-07-29T04:41:49;4.93;;;2.10;;
23812;SDS011;12087;45.190;5.688;2022-07-29T04:47:13;5.65;;;2.50;;
23812;SDS011;12087;45.190;5.688;2022-07-29T04:52:35;4.35;;;2.10;;
23812;SDS011;12087;45.190;5.688;2022-07-29T04:57:57;3.10;;;2.28;;
23812;SDS011;12087;45.190;5.688;2022-07-29T05:03:21;4.63;;;2.22;;
23812;SDS011;12087;45.190;5.688;2022-07-29T05:08:43;11.35;;;2.65;;
23812;SDS011;12087;45.190;5.688;2022-07-29T05:14:07;7.10;;;2.28;;
23812;SDS011;12087;45.190;5.688;2022-07-29T05:19:30;4.25;;;1.80;;
23812;SDS011;12087;45.190;5.688;2022-07-29T05:24:53;5.47;;;2.05;;
23812;SDS011;12087;45.190;5.688;2022-07-29T05:30:15;4.68;;;2.65;;
23812;SDS011;12087;45.190;5.688;2022-07-29T05:35:38;8.85;;;2.40;;
23812;SDS011;12087;45.190;5.688;2022-07-29T05:41:01;5.55;;;2.03;;
23812;SDS011;12087;45.190;5.688;2022-07-29T05:46:23;8.15;;;2.10;;
23812;SDS011;12087;45.190;5.688;2022-07-29T05:51:46;5.47;;;2.38;;
23812;SDS011;12087;45.190;5.688;2022-07-29T05:57:15;7.57;;;2.05;;
23812;SDS011;12087;45.190;5.688;2022-07-29T06:02:38;10.77;;;3.45;;
23812;SDS011;12087;45.190;5.688;2022-07-29T06:08:01;6.32;;;3.25;;
23812;SDS011;12087;45.190;5.688;2022-07-29T06:13:25;6.80;;;2.45;;
23812;SDS011;12087;45.190;5.688;2022-07-29T06:18:48;3.15;;;2.42;;
23812;SDS011;12087;45.190;5.688;2022-07-29T06:24:11;5.95;;;1.95;;
23812;SDS011;12087;45.190;5.688;2022-07-29T06:29:34;6.53;;;2.55;;
23812;SDS011;12087;45.190;5.688;2022-07-29T06:34:56;7.38;;;2.40;;
23812;SDS011;12087;45.190;5.688;2022-07-29T06:40:20;9.80;;;2.60;;
23812;SDS011;12087;45.190;5.688;2022-07-29T06:46:00;9.38;;;2.60;;
23812;SDS011;12087;45.190;5.688;2022-07-29T06:51:23;12.77;;;2.42;;
23812;SDS011;12087;45.190;5.688;2022-07-29T06:56:47;10.93;;;3.08;;
23812;SDS011;12087;45.190;5.688;2022-07-29T07:02:09;7.13;;;2.60;;
23812;SDS011;12087;45.190;5.688;2022-07-29T07:07:31;7.55;;;2.42;;
23812;SDS011;12087;45.190;5.688;2022-07-29T07:12:55;4.40;;;2.15;;
23812;SDS011;12087;45.190;5.688;2022-07-29T07:18:17;12.00;;;2.80;;
23812;SDS011;12087;45.190;5.688;2022-07-29T07:23:39;14.02;;;2.35;;
23812;SDS011;12087;45.190;5.688;2022-07-29T07:29:03;14.52;;;2.80;;
23812;SDS011;12087;45.190;5.688;2022-07-29T07:34:25;8.30;;;2.17;;
23812;SDS011;12087;45.190;5.688;2022-07-29T07:39:48;15.25;;;2.80;;
23812;SDS011;12087;45.190;5.688;2022-07-29T07:45:11;10.48;;;2.50;;
23812;SDS011;12087;45.190;5.688;2022-07-29T07:50:34;12.20;;;3.30;;
23812;SDS011;12087;45.190;5.688;2022-07-29T07:55:56;6.45;;;2.30;;
23812;SDS011;12087;45.190;5.688;2022-07-29T08:01:19;4.72;;;2.08;;
23812;SDS011;12087;45.190;5.688;2022-07-29T08:06:43;9.55;;;2.10;;
23812;SDS011;12087;45.190;5.688;2022-07-29T08:12:05;5.53;;;2.40;;
23812;SDS011;12087;45.190;5.688;2022-07-29T08:17:29;5.90;;;2.92;;
23812;SDS011;12087;45.190;5.688;2022-07-29T08:22:52;5.28;;;2.70;;
23812;SDS011;12087;45.190;5.688;2022-07-29T08:28:14;7.40;;;2.70;;
23812;SDS011;12087;45.190;5.688;2022-07-29T08:33:38;6.03;;;2.60;;
23812;SDS011;12087;45.190;5.688;2022-07-29T08:39:01;9.70;;;2.72;;
23812;SDS011;12087;45.190;5.688;2022-07-29T08:44:24;7.47;;;3.03;;
23812;SDS011;12087;45.190;5.688;2022-07-29T08:49:48;18.88;;;5.88;;
23812;SDS011;12087;45.190;5.688;2022-07-29T08:55:11;15.38;;;5.45;;
23812;SDS011;12087;45.190;5.688;2022-07-29T09:00:37;17.20;;;4.93;;
23812;SDS011;12087;45.190;5.688;2022-07-29T09:06:05;10.80;;;4.03;;
23812;SDS011;12087;45.190;5.688;2022-07-29T09:11:28;12.90;;;5.32;;
23812;SDS011;12087;45.190;5.688;2022-07-29T09:16:52;12.27;;;5.35;;
23812;SDS011;12087;45.190;5.688;2022-07-29T09:22:27;13.43;;;4.22;;
23812;SDS011;12087;45.190;5.688;2022-07-29T09:27:53;13.00;;;4.40;;
23812;SDS011;12087;45.190;5.688;2022-07-29T09:33:15;9.43;;;4.18;;
23812;SDS011;12087;45.190;5.688;2022-07-29T09:38:39;9.23;;;4.10;;
23812;SDS011;12087;45.190;5.688;2022-07-29T09:44:01;10.60;;;5.10;;
23812;SDS011;12087;45.190;5.688;2022-07-29T09:49:26;11.95;;;5.20;;
23812;SDS011;12087;45.190;5.688;2022-07-29T09:54:49;17.20;;;5.80;;
23812;SDS011;12087;45.190;5.688;2022-07-29T10:00:13;16.38;;;5.40;;
23812;SDS011;12087;45.190;5.688;2022-07-29T10:05:39;9.60;;;5.38;;
23812;SDS011;12087;45.190;5.688;2022-07-29T10:11:10;8.63;;;5.28;;
23812;SDS011;12087;45.190;5.688;2022-07-29T10:16:33;13.75;;;5.00;;
23812;SDS011;12087;45.190;5.688;2022-07-29T10:21:57;10.32;;;4.93;;
23812;SDS011;12087;45.190;5.688;2022-07-29T10:27:21;9.35;;;4.93;;
23812;SDS011;12087;45.190;5.688;2022-07-29T10:32:49;9.55;;;4.43;;
23812;SDS011;12087;45.190;5.688;2022-07-29T10:44:14;15.97;;;5.33;;
23812;SDS011;12087;45.190;5.688;2022-07-29T10:49:39;14.97;;;5.33;;
23812;SDS011;12087;45.190;5.688;2022-07-29T10:55:30;16.98;;;4.32;;
23812;SDS011;12087;45.190;5.688;2022-07-29T11:00:55;9.55;;;4.90;;
23812;SDS011;12087;45.190;5.688;2022-07-29T11:06:17;13.98;;;4.57;;
23812;SDS011;12087;45.190;5.688;2022-07-29T11:11:39;7.95;;;4.53;;
23812;SDS011;12087;45.190;5.688;2022-07-29T11:17:04;9.23;;;4.75;;
23812;SDS011;12087;45.190;5.688;2022-07-29T11:22:31;8.43;;;4.75;;
23812;SDS011;12087;45.190;5.688;2022-07-29T11:27:54;9.43;;;4.53;;
23812;SDS011;12087;45.190;5.688;2022-07-29T11:33:32;12.38;;;5.85;;
23812;SDS011;12087;45.190;5.688;2022-07-29T11:44:56;11.75;;;6.28;;
23812;SDS011;12087;45.190;5.688;2022-07-29T11:50:29;11.57;;;8.02;;
23812;SDS011;12087;45.190;5.688;2022-07-29T11:55:54;9.70;;;7.10;;
23812;SDS011;12087;45.190;5.688;2022-07-29T12:01:17;7.78;;;5.43;;
23812;SDS011;12087;45.190;5.688;2022-07-29T12:06:44;10.65;;;6.10;;
23812;SDS011;12087;45.190;5.688;2022-07-29T12:12:11;13.35;;;6.68;;
23812;SDS011;12087;45.190;5.688;2022-07-29T12:17:37;16.60;;;7.07;;
23812;SDS011;12087;45.190;5.688;2022-07-29T12:23:05;14.05;;;7.20;;
23812;SDS011;12087;45.190;5.688;2022-07-29T12:28:29;11.57;;;5.78;;
23812;SDS011;12087;45.190;5.688;2022-07-29T12:33:52;13.75;;;7.78;;
23812;SDS011;12087;45.190;5.688;2022-07-29T12:39:16;11.05;;;7.35;;
23812;SDS011;12087;45.190;5.688;2022-07-29T12:44:46;10.18;;;6.43;;
23812;SDS011;12087;45.190;5.688;2022-07-29T12:50:10;11.98;;;6.78;;
23812;SDS011;12087;45.190;5.688;2022-07-29T12:55:40;8.65;;;5.78;;
23812;SDS011;12087;45.190;5.688;2022-07-29T13:01:04;6.50;;;4.88;;
23812;SDS011;12087;45.190;5.688;2022-07-29T13:06:33;8.57;;;4.13;;
23812;SDS011;12087;45.190;5.688;2022-07-29T13:11:59;5.00;;;4.13;;
23812;SDS011;12087;45.190;5.688;2022-07-29T13:17:29;6.93;;;4.15;;
23812;SDS011;12087;45.190;5.688;2022-07-29T13:23:02;5.53;;;3.60;;
23812;SDS011;12087;45.190;5.688;2022-07-29T13:28:26;4.80;;;3.72;;
23812;SDS011;12087;45.190;5.688;2022-07-29T13:33:48;4.88;;;3.75;;
23812;SDS011;12087;45.190;5.688;2022-07-29T13:39:11;6.60;;;3.85;;
23812;SDS011;12087;45.190;5.688;2022-07-29T13:44:34;4.70;;;3.58;;
23812;SDS011;12087;45.190;5.688;2022-07-29T13:49:56;4.93;;;3.55;;
23812;SDS011;12087;45.190;5.688;2022-07-29T13:55:19;5.63;;;4.22;;
23812;SDS011;12087;45.190;5.688;2022-07-29T14:00:43;4.78;;;3.13;;
23812;SDS011;12087;45.190;5.688;2022-07-29T14:06:06;6.40;;;3.78;;
23812;SDS011;12087;45.190;5.688;2022-07-29T14:11:29;2.95;;;2.58;;
23812;SDS011;12087;45.190;5.688;2022-07-29T14:16:52;4.55;;;2.83;;
23812;SDS011;12087;45.190;5.688;2022-07-29T14:22:15;4.80;;;3.10;;
23812;SDS011;12087;45.190;5.688;2022-07-29T14:27:39;3.83;;;3.13;;
23812;SDS011;12087;45.190;5.688;2022-07-29T14:33:02;6.82;;;3.55;;
23812;SDS011;12087;45.190;5.688;2022-07-29T14:38:24;3.17;;;2.78;;
23812;SDS011;12087;45.190;5.688;2022-07-29T14:43:46;5.97;;;3.67;;
23812;SDS011;12087;45.190;5.688;2022-07-29T14:49:10;5.88;;;3.08;;
23812;SDS011;12087;45.190;5.688;2022-07-29T14:54:32;4.00;;;3.08;;
23812;SDS011;12087;45.190;5.688;2022-07-29T14:59:54;4.47;;;3.00;;
23812;SDS011;12087;45.190;5.688;2022-07-29T15:05:18;4.78;;;3.03;;
23812;SDS011;12087;45.190;5.688;2022-07-29T15:10:41;5.40;;;3.17;;
23812;SDS011;12087;45.190;5.688;2022-07-29T15:16:04;7.90;;;3.47;;
23812;SDS011;12087;45.190;5.688;2022-07-29T15:21:28;5.70;;;3.10;;
23812;SDS011;12087;45.190;5.688;2022-07-29T15:26:50;4.20;;;3.08;;
23812;SDS011;12087;45.190;5.688;2022-07-29T15:32:12;3.80;;;2.80;;
23812;SDS011;12087;45.190;5.688;2022-07-29T15:37:36;3.40;;;2.63;;
23812;SDS011;12087;45.190;5.688;2022-07-29T15:42:58;3.92;;;2.92;;
23812;SDS011;12087;45.190;5.688;2022-07-29T15:48:25;5.03;;;2.70;;
23812;SDS011;12087;45.190;5.688;2022-07-29T15:53:49;4.00;;;2.53;;
23812;SDS011;12087;45.190;5.688;2022-07-29T15:59:11;4.68;;;2.33;;
23812;SDS011;12087;45.190;5.688;2022-07-29T16:04:33;3.65;;;2.75;;
23812;SDS011;12087;45.190;5.688;2022-07-29T16:09:57;5.05;;;2.85;;
23812;SDS011;12087;45.190;5.688;2022-07-29T16:15:19;4.30;;;2.58;;
23812;SDS011;12087;45.190;5.688;2022-07-29T16:20:41;10.00;;;3.05;;
23812;SDS011;12087;45.190;5.688;2022-07-29T16:26:05;5.43;;;2.45;;
23812;SDS011;12087;45.190;5.688;2022-07-29T16:31:28;5.00;;;2.50;;
23812;SDS011;12087;45.190;5.688;2022-07-29T16:36:50;3.13;;;2.13;;
23812;SDS011;12087;45.190;5.688;2022-07-29T16:42:14;3.70;;;2.22;;
23812;SDS011;12087;45.190;5.688;2022-07-29T16:47:36;5.35;;;2.33;;
23812;SDS011;12087;45.190;5.688;2022-07-29T16:52:58;4.35;;;2.60;;
23812;SDS011;12087;45.190;5.688;2022-07-29T16:58:22;3.50;;;2.17;;
23812;SDS011;12087;45.190;5.688;2022-07-29T17:03:44;3.05;;;1.80;;
23812;SDS011;12087;45.190;5.688;2022-07-29T17:14:53;5.90;;;2.08;;
23812;SDS011;12087;45.190;5.688;2022-07-29T17:20:15;2.30;;;1.75;;
23812;SDS011;12087;45.190;5.688;2022-07-29T17:25:38;2.65;;;1.75;;
23812;SDS011;12087;45.190;5.688;2022-07-29T17:31:01;1.90;;;1.40;;
23812;SDS011;12087;45.190;5.688;2022-07-29T17:36:23;2.30;;;1.65;;
23812;SDS011;12087;45.190;5.688;2022-07-29T17:41:46;4.95;;;1.90;;
23812;SDS011;12087;45.190;5.688;2022-07-29T17:47:09;4.22;;;1.50;;
23812;SDS011;12087;45.190;5.688;2022-07-29T17:52:32;4.18;;;1.98;;
23812;SDS011;12087;45.190;5.688;2022-07-29T17:57:54;6.00;;;1.67;;
23812;SDS011;12087;45.190;5.688;2022-07-29T18:03:18;4.07;;;2.00;;
23812;SDS011;12087;45.190;5.688;2022-07-29T18:08:40;6.13;;;2.22;;
23812;SDS011;12087;45.190;5.688;2022-07-29T18:14:06;2.10;;;1.60;;
23812;SDS011;12087;45.190;5.688;2022-07-29T18:19:30;2.58;;;1.70;;
23812;SDS011;12087;45.190;5.688;2022-07-29T18:24:52;15.45;;;2.58;;
23812;SDS011;12087;45.190;5.688;2022-07-29T18:30:14;3.92;;;2.47;;
23812;SDS011;12087;45.190;5.688;2022-07-29T18:35:38;5.68;;;2.63;;
23812;SDS011;12087;45.190;5.688;2022-07-29T18:41:00;3.20;;;1.88;;
23812;SDS011;12087;45.190;5.688;2022-07-29T18:46:22;4.90;;;2.00;;
23812;SDS011;12087;45.190;5.688;2022-07-29T18:51:46;4.22;;;1.80;;
23812;SDS011;12087;45.190;5.688;2022-07-29T18:57:08;2.65;;;1.70;;
23812;SDS011;12087;45.190;5.688;2022-07-29T19:02:31;10.77;;;7.53;;
23812;SDS011;12087;45.190;5.688;2022-07-29T19:07:55;7.00;;;2.30;;
23812;SDS011;12087;45.190;5.688;2022-07-29T19:13:17;15.10;;;11.68;;
23812;SDS011;12087;45.190;5.688;2022-07-29T19:18:40;7.25;;;4.72;;
23812;SDS011;12087;45.190;5.688;2022-07-29T19:24:05;2.55;;;2.00;;
23812;SDS011;12087;45.190;5.688;2022-07-29T19:29:28;3.75;;;1.80;;
23812;SDS011;12087;45.190;5.688;2022-07-29T19:34:51;3.60;;;1.88;;
23812;SDS011;12087;45.190;5.688;2022-07-29T19:40:32;5.00;;;4.37;;
23812;SDS011;12087;45.190;5.688;2022-07-29T19:45:54;7.38;;;3.00;;
23812;SDS011;12087;45.190;5.688;2022-07-29T19:51:16;3.17;;;2.10;;
23812;SDS011;12087;45.190;5.688;2022-07-29T19:56:40;2.20;;;1.90;;
23812;SDS011;12087;45.190;5.688;2022-07-29T20:02:04;1.80;;;1.70;;
23812;SDS011;12087;45.190;5.688;2022-07-29T20:07:28;2.40;;;2.10;;
23812;SDS011;12087;45.190;5.688;2022-07-29T20:12:52;4.22;;;1.85;;
23812;SDS011;12087;45.190;5.688;2022-07-29T20:18:14;3.53;;;2.17;;
23812;SDS011;12087;45.190;5.688;2022-07-29T20:23:37;5.45;;;2.10;;
23812;SDS011;12087;45.190;5.688;2022-07-29T20:29:01;5.40;;;1.85;;
23812;SDS011;12087;45.190;5.688;2022-07-29T20:34:24;3.20;;;1.80;;
23812;SDS011;12087;45.190;5.688;2022-07-29T20:39:46;2.97;;;1.90;;
23812;SDS011;12087;45.190;5.688;2022-07-29T20:45:10;4.28;;;2.15;;
23812;SDS011;12087;45.190;5.688;2022-07-29T20:50:33;2.40;;;1.80;;
23812;SDS011;12087;45.190;5.688;2022-07-29T20:55:55;7.05;;;1.95;;
23812;SDS011;12087;45.190;5.688;2022-07-29T21:01:19;6.47;;;1.88;;
23812;SDS011;12087;45.190;5.688;2022-07-29T21:06:41;3.95;;;2.25;;
23812;SDS011;12087;45.190;5.688;2022-07-29T21:12:03;6.72;;;2.10;;
23812;SDS011;12087;45.190;5.688;2022-07-29T21:17:28;3.47;;;2.63;;
23812;SDS011;12087;45.190;5.688;2022-07-29T21:22:54;4.93;;;2.63;;
23812;SDS011;12087;45.190;5.688;2022-07-29T21:28:17;2.70;;;2.50;;
23812;SDS011;12087;45.190;5.688;2022-07-29T21:33:56;6.20;;;2.30;;
23812;SDS011;12087;45.190;5.688;2022-07-29T21:39:18;2.30;;;1.90;;
23812;SDS011;12087;45.190;5.688;2022-07-29T21:44:40;3.55;;;2.08;;
23812;SDS011;12087;45.190;5.688;2022-07-29T21:50:04;2.03;;;1.83;;
23812;SDS011;12087;45.190;5.688;2022-07-29T21:55:27;2.88;;;1.92;;
23812;SDS011;12087;45.190;5.688;2022-07-29T22:00:49;5.68;;;2.15;;
23812;SDS011;12087;45.190;5.688;2022-07-29T22:06:14;3.30;;;1.85;;
23812;SDS011;12087;45.190;5.688;2022-07-29T22:11:36;2.70;;;1.88;;
23812;SDS011;12087;45.190;5.688;2022-07-29T22:16:58;2.47;;;2.05;;
23812;SDS011;12087;45.190;5.688;2022-07-29T22:22:22;2.53;;;1.88;;
23812;SDS011;12087;45.190;5.688;2022-07-29T22:27:44;5.13;;;2.05;;
23812;SDS011;12087;45.190;5.688;2022-07-29T22:33:06;5.50;;;2.00;;
23812;SDS011;12087;45.190;5.688;2022-07-29T22:38:30;5.57;;;2.30;;
23812;SDS011;12087;45.190;5.688;2022-07-29T22:43:53;3.55;;;2.03;;
23812;SDS011;12087;45.190;5.688;2022-07-29T22:49:15;2.88;;;2.08;;
23812;SDS011;12087;45.190;5.688;2022-07-29T22:54:38;4.43;;;2.22;;
23812;SDS011;12087;45.190;5.688;2022-07-29T23:00:01;3.20;;;2.45;;
23812;SDS011;12087;45.190;5.688;2022-07-29T23:05:24;4.13;;;2.08;;
23812;SDS011;12087;45.190;5.688;2022-07-29T23:10:48;2.67;;;1.85;;
23812;SDS011;12087;45.190;5.688;2022-07-29T23:16:10;4.38;;;2.40;;
23812;SDS011;12087;45.190;5.688;2022-07-29T23:21:33;5.22;;;2.17;;
23812;SDS011;12087;45.190;5.688;2022-07-29T23:26:56;2.65;;;2.30;;
23812;SDS011;12087;45.190;5.688;2022-07-29T23:32:19;2.90;;;2.40;;
23812;SDS011;12087;45.190;5.688;2022-07-29T23:37:44;3.00;;;2.15;;
23812;SDS011;12087;45.190;5.688;2022-07-29T23:43:12;5.32;;;2.30;;
23812;SDS011;12087;45.190;5.688;2022-07-29T23:48:35;5.05;;;2.28;;
23812;SDS011;12087;45.190;5.688;2022-07-29T23:53:58;4.90;;;2.42;;
23812;SDS011;12087;45.190;5.688;2022-07-29T23:59:24;4.28;;;2.70;;
